createdAt,value
2019-03-28T00:01:11.979Z,100859.33
2019-03-28T00:03:46.599Z,100855.34
2019-03-28T00:06:20.921Z,100852.02
2019-03-28T00:08:55.414Z,100846.80
2019-03-28T00:11:29.661Z,100847.63
2019-03-28T00:14:04.285Z,100850.48
2019-03-28T00:16:39.424Z,100849.56
2019-03-28T00:19:14.879Z,100847.95
2019-03-28T00:21:50.006Z,100850.90
2019-03-28T00:24:51.764Z,100847.57
2019-03-28T00:27:26.807Z,100846.27
2019-03-28T00:30:01.842Z,100851.14
2019-03-28T00:32:36.337Z,100851.75
2019-03-28T00:35:09.765Z,100843.37
2019-03-28T00:37:44.840Z,100841.70
2019-03-28T00:40:19.833Z,100844.80
2019-03-28T00:42:54.767Z,100842.28
2019-03-28T00:45:29.938Z,100842.78
2019-03-28T00:48:04.911Z,100838.21
2019-03-28T00:50:57.456Z,100836.36
2019-03-28T00:53:32.415Z,100835.91
2019-03-28T00:56:06.626Z,100834.65
2019-03-28T00:58:41.155Z,100833.53
2019-03-28T01:01:15.679Z,100835.05
2019-03-28T01:03:50.341Z,100829.28
2019-03-28T01:06:24.686Z,100831.69
2019-03-28T01:08:59.593Z,100833.63
2019-03-28T01:11:34.041Z,100834.29
2019-03-28T01:14:08.809Z,100834.56
2019-03-28T01:16:43.331Z,100825.09
2019-03-28T01:19:18.228Z,100829.22
2019-03-28T01:21:52.483Z,100832.89
2019-03-28T01:24:27.299Z,100832.59
2019-03-28T01:27:01.938Z,100829.86
2019-03-28T01:29:35.947Z,100832.23
2019-03-28T01:32:10.468Z,100837.50
2019-03-28T01:34:45.107Z,100832.36
2019-03-28T01:37:19.523Z,100829.18
2019-03-28T01:39:54.101Z,100830.71
2019-03-28T01:42:28.096Z,100824.42
2019-03-28T01:45:01.969Z,100817.59
2019-03-28T01:47:36.586Z,100825.62
2019-03-28T01:50:10.908Z,100823.86
2019-03-28T01:52:45.744Z,100827.41
2019-03-28T01:55:20.161Z,100829.56
2019-03-28T01:57:54.674Z,100821.82
2019-03-28T02:00:29.301Z,100825.64
2019-03-28T02:03:03.830Z,100820.61
2019-03-28T02:05:38.455Z,100822.98
2019-03-28T02:08:12.333Z,100826.70
2019-03-28T02:10:47.197Z,100819.00
2019-03-28T02:13:22.231Z,100820.55
2019-03-28T02:15:56.346Z,100818.44
2019-03-28T02:18:31.097Z,100816.63
2019-03-28T02:21:05.344Z,100809.08
2019-03-28T02:23:40.017Z,100807.59
2019-03-28T02:26:14.541Z,100808.30
2019-03-28T02:28:48.748Z,100801.88
2019-03-28T02:31:22.972Z,100805.34
2019-03-28T02:33:57.602Z,100801.14
2019-03-28T02:36:32.434Z,100801.39
2019-03-28T02:39:07.604Z,100798.56
2019-03-28T02:41:42.153Z,100800.83
2019-03-28T02:44:16.673Z,100805.00
2019-03-28T02:46:51.213Z,100801.55
2019-03-28T02:49:25.862Z,100793.73
2019-03-28T02:52:00.339Z,100790.67
2019-03-28T02:54:35.024Z,100792.11
2019-03-28T02:57:09.433Z,100791.98
2019-03-28T02:59:44.446Z,100800.80
2019-03-28T03:02:19.377Z,100798.20
2019-03-28T03:04:54.435Z,100802.17
2019-03-28T03:07:29.484Z,100802.78
2019-03-28T03:10:03.584Z,100799.17
2019-03-28T03:12:37.598Z,100811.59
2019-03-28T03:15:11.672Z,100815.55
2019-03-28T03:17:46.543Z,100816.67
2019-03-28T03:20:21.379Z,100815.20
2019-03-28T03:22:56.176Z,100820.27
2019-03-28T03:25:30.767Z,100822.30
2019-03-28T03:28:05.611Z,100821.50
2019-03-28T03:30:40.373Z,100823.97
2019-03-28T03:33:15.331Z,100822.77
2019-03-28T03:35:49.816Z,100826.20
2019-03-28T03:38:24.646Z,100821.03
2019-03-28T03:40:59.196Z,100827.24
2019-03-28T03:43:34.136Z,100829.86
2019-03-28T03:46:08.666Z,100832.11
2019-03-28T03:48:43.274Z,100834.88
2019-03-28T03:51:18.827Z,100833.30
2019-03-28T03:53:53.856Z,100831.38
2019-03-28T03:56:28.275Z,100832.92
2019-03-28T03:59:03.316Z,100836.59
2019-03-28T04:01:37.429Z,100831.92
2019-03-28T04:04:14.626Z,100829.81
2019-03-28T04:06:48.839Z,100829.47
2019-03-28T04:09:23.868Z,100828.74
2019-03-28T04:11:58.511Z,100823.80
2019-03-28T04:14:33.436Z,100820.92
2019-03-28T04:17:07.951Z,100814.48
2019-03-28T04:19:42.992Z,100811.28
2019-03-28T04:22:17.432Z,100806.84
2019-03-28T04:24:51.153Z,100807.06
2019-03-28T04:27:25.843Z,100804.40
2019-03-28T04:30:00.777Z,100805.91
2019-03-28T04:32:35.685Z,100798.98
2019-03-28T04:35:10.232Z,100802.88
2019-03-28T04:37:43.935Z,100804.20
2019-03-28T04:40:18.127Z,100806.75
2019-03-28T04:42:53.055Z,100809.61
2019-03-28T04:45:28.095Z,100812.83
2019-03-28T04:48:02.921Z,100813.32
2019-03-28T04:50:37.461Z,100804.53
2019-03-28T04:53:12.383Z,100793.17
2019-03-28T04:55:47.246Z,100800.09
2019-03-28T04:58:23.307Z,100798.30
2019-03-28T05:00:57.638Z,100801.33
2019-03-28T05:03:32.218Z,100807.66
2019-03-28T05:06:07.024Z,100809.72
2019-03-28T05:08:41.789Z,100803.87
2019-03-28T05:11:16.259Z,100805.37
2019-03-28T05:13:51.396Z,100805.64
2019-03-28T05:16:26.341Z,100810.84
2019-03-28T05:19:00.760Z,100814.28
2019-03-28T05:21:35.612Z,100814.14
2019-03-28T05:24:10.677Z,100813.61
2019-03-28T05:26:45.427Z,100820.99
2019-03-28T05:29:20.587Z,100825.33
2019-03-28T05:31:55.622Z,100833.77
2019-03-28T05:34:30.456Z,100833.41
2019-03-28T05:37:04.781Z,100846.44
2019-03-28T05:39:39.715Z,100846.61
2019-03-28T05:42:14.248Z,100851.42
2019-03-28T05:44:49.356Z,100854.81
2019-03-28T05:47:24.461Z,100858.50
2019-03-28T05:49:59.302Z,100859.52
2019-03-28T05:52:34.360Z,100868.28
2019-03-28T05:55:08.299Z,100865.02
2019-03-28T05:57:43.180Z,100870.75
2019-03-28T06:00:17.748Z,100872.46
2019-03-28T06:02:52.218Z,100876.46
2019-03-28T06:05:26.760Z,100886.77
2019-03-28T06:08:01.464Z,100884.31
2019-03-28T06:10:37.537Z,100885.53
2019-03-28T06:13:12.149Z,100882.39
2019-03-28T06:15:46.954Z,100887.55
2019-03-28T06:18:21.710Z,100886.67
2019-03-28T06:20:59.444Z,100886.03
2019-03-28T06:23:32.751Z,100885.58
2019-03-28T06:26:07.212Z,100894.04
2019-03-28T06:28:41.512Z,100894.47
2019-03-28T06:31:15.919Z,100885.55
2019-03-28T06:33:50.696Z,100888.20
2019-03-28T06:36:26.753Z,100889.44
2019-03-28T06:39:01.006Z,100895.94
2019-03-28T06:41:35.763Z,100890.41
2019-03-28T06:44:10.827Z,100904.23
2019-03-28T06:46:45.543Z,100902.95
2019-03-28T06:49:20.457Z,100896.94
2019-03-28T06:51:54.643Z,100900.68
2019-03-28T06:54:28.885Z,100902.51
2019-03-28T06:57:03.595Z,100901.50
2019-03-28T06:59:38.188Z,100899.07
2019-03-28T07:02:13.103Z,100893.77
2019-03-28T07:04:48.043Z,100897.78
2019-03-28T07:07:22.263Z,100907.52
2019-03-28T07:10:02.286Z,100900.41
2019-03-28T07:12:36.111Z,100901.42
2019-03-28T07:15:10.145Z,100897.08
2019-03-28T07:17:44.492Z,100898.91
2019-03-28T07:20:19.468Z,100898.73
2019-03-28T07:22:54.391Z,100903.83
2019-03-28T07:25:29.399Z,100907.66
2019-03-28T07:28:06.368Z,100901.55
2019-03-28T07:30:40.688Z,100902.80
2019-03-28T07:33:15.567Z,100907.67
2019-03-28T07:35:50.316Z,100909.64
2019-03-28T07:38:24.735Z,100910.78
2019-03-28T07:40:59.629Z,100911.70
2019-03-28T07:43:34.418Z,100910.88
2019-03-28T07:46:08.974Z,100913.02
2019-03-28T07:48:43.726Z,100909.36
2019-03-28T07:51:18.137Z,100909.20
2019-03-28T07:53:51.780Z,100912.90
2019-03-28T07:56:26.463Z,100907.70
2019-03-28T07:59:01.391Z,100913.08
2019-03-28T08:01:35.243Z,100918.56
2019-03-28T08:04:12.293Z,100918.33
2019-03-28T08:06:50.063Z,100923.62
2019-03-28T08:09:21.265Z,100923.93
2019-03-28T08:11:54.046Z,100931.84
2019-03-28T08:14:29.371Z,100924.94
2019-03-28T08:17:03.272Z,100921.48
2019-03-28T08:19:37.608Z,100921.77
2019-03-28T08:22:12.549Z,100924.70
2019-03-28T08:24:46.500Z,100928.40
2019-03-28T08:27:20.904Z,100934.72
2019-03-28T08:29:57.684Z,100928.36
2019-03-28T08:32:29.893Z,100925.12
2019-03-28T08:35:03.761Z,100925.00
2019-03-28T08:37:38.414Z,100931.98
2019-03-28T08:40:12.486Z,100928.52
2019-03-28T08:42:47.500Z,100928.46
2019-03-28T08:45:23.061Z,100926.57
2019-03-28T08:47:56.747Z,100934.15
2019-03-28T08:50:29.933Z,100937.27
2019-03-28T08:53:04.659Z,100939.73
2019-03-28T08:55:39.376Z,100942.25
2019-03-28T08:58:14.320Z,100940.91
2019-03-28T09:00:52.232Z,100945.81
2019-03-28T09:03:24.905Z,100951.29
2019-03-28T09:05:59.221Z,100951.63
2019-03-28T09:08:33.814Z,100945.15
2019-03-28T09:11:08.051Z,100947.52
2019-03-28T09:13:44.271Z,100951.13
2019-03-28T09:16:19.498Z,100947.52
2019-03-28T09:18:54.761Z,100946.22
2019-03-28T09:21:29.581Z,100946.16
2019-03-28T09:24:04.487Z,100943.02
2019-03-28T09:26:39.082Z,100942.06
2019-03-28T09:29:13.792Z,100936.61
2019-03-28T09:31:49.147Z,100941.05
2019-03-28T09:34:24.277Z,100947.51
2019-03-28T09:36:58.959Z,100942.92
2019-03-28T09:39:33.334Z,100938.94
2019-03-28T09:42:07.446Z,100939.41
2019-03-28T09:44:42.517Z,100943.91
2019-03-28T09:47:16.951Z,100948.61
2019-03-28T09:49:53.081Z,100949.16
2019-03-28T09:52:26.962Z,100948.89
2019-03-28T09:55:00.894Z,100949.77
2019-03-28T09:57:35.446Z,100954.19
2019-03-28T10:00:10.803Z,100949.53
2019-03-28T10:02:45.743Z,100951.61
2019-03-28T10:05:19.448Z,100945.53
2019-03-28T10:07:54.285Z,100948.13
2019-03-28T10:10:28.057Z,100953.89
2019-03-28T10:13:01.972Z,100958.09
2019-03-28T10:15:37.238Z,100960.87
2019-03-28T10:18:11.916Z,100954.19
2019-03-28T10:20:45.783Z,100949.82
2019-03-28T10:23:20.813Z,100954.19
2019-03-28T10:25:55.529Z,100946.47
2019-03-28T10:28:30.382Z,100946.34
2019-03-28T10:31:15.721Z,100948.02
2019-03-28T10:33:40.815Z,100947.25
2019-03-28T10:36:15.851Z,100946.48
2019-03-28T10:38:50.361Z,100947.17
2019-03-28T10:41:26.043Z,100955.53
2019-03-28T10:44:00.360Z,100950.55
2019-03-28T10:46:34.723Z,100947.58
2019-03-28T10:49:08.563Z,100950.48
2019-03-28T10:51:42.097Z,100950.02
2019-03-28T10:54:20.579Z,100945.14
2019-03-28T10:56:57.538Z,100947.71
2019-03-28T10:59:29.709Z,100952.41
2019-03-28T11:02:03.691Z,100949.95
2019-03-28T11:04:37.684Z,100947.70
2019-03-28T11:07:12.179Z,100949.47
2019-03-28T11:09:46.263Z,100949.91
2019-03-28T11:12:21.553Z,100960.08
2019-03-28T11:14:56.691Z,100957.83
2019-03-28T11:17:31.170Z,100959.09
2019-03-28T11:20:06.104Z,100948.84
2019-03-28T11:22:40.788Z,100946.67
2019-03-28T11:25:14.769Z,100948.87
2019-03-28T11:27:49.667Z,100947.04
2019-03-28T11:30:25.683Z,100950.01
2019-03-28T11:32:59.407Z,100960.23
2019-03-28T11:35:34.106Z,100963.30
2019-03-28T11:38:09.986Z,100958.41
2019-03-28T11:40:43.715Z,100966.26
2019-03-28T11:43:18.282Z,100962.11
2019-03-28T11:45:52.062Z,100954.47
2019-03-28T11:48:25.346Z,100948.61
2019-03-28T11:50:59.229Z,100944.33
2019-03-28T11:53:34.221Z,100949.55
2019-03-28T11:56:08.652Z,100961.52
2019-03-28T11:58:42.771Z,100962.54
2019-03-28T12:01:18.111Z,100960.85
2019-03-28T12:03:52.371Z,100963.22
2019-03-28T12:06:27.122Z,100960.75
2019-03-28T12:09:02.381Z,100965.27
2019-03-28T12:11:36.655Z,100966.42
2019-03-28T12:14:11.360Z,100969.34
2019-03-28T12:16:45.997Z,100974.86
2019-03-28T12:19:21.442Z,100976.07
2019-03-28T12:21:57.179Z,100976.55
2019-03-28T12:24:31.695Z,100970.08
2019-03-28T12:27:06.638Z,100975.94
2019-03-28T12:29:42.092Z,100972.96
2019-03-28T12:32:17.726Z,100973.02
2019-03-28T12:34:51.940Z,100976.02
2019-03-28T12:37:27.026Z,100971.63
2019-03-28T12:40:01.701Z,100965.58
2019-03-28T12:42:35.985Z,100958.19
2019-03-28T12:45:11.857Z,100961.23
2019-03-28T12:47:46.710Z,100959.94
2019-03-28T12:50:21.138Z,100956.34
2019-03-28T12:52:58.279Z,100957.19
2019-03-28T12:55:32.437Z,100956.15
2019-03-28T12:58:06.183Z,100959.02
2019-03-28T13:00:41.363Z,100961.76
2019-03-28T13:03:16.216Z,100963.20
2019-03-28T13:05:49.584Z,100969.19
2019-03-28T13:08:23.245Z,100972.42
2019-03-28T13:10:56.430Z,100975.11
2019-03-28T13:13:30.702Z,100971.80
2019-03-28T13:16:05.736Z,100974.86
2019-03-28T13:18:39.413Z,100972.22
2019-03-28T13:21:14.349Z,100969.29
2019-03-28T13:23:49.316Z,100961.63
2019-03-28T13:26:23.691Z,100960.00
2019-03-28T13:28:57.616Z,100956.03
2019-03-28T13:31:31.532Z,100955.52
2019-03-28T13:34:06.354Z,100954.27
2019-03-28T13:36:40.720Z,100945.46
2019-03-28T13:39:15.645Z,100933.31
2019-03-28T13:41:49.249Z,100931.55
2019-03-28T13:44:24.209Z,100932.19
2019-03-28T13:46:58.445Z,100937.67
2019-03-28T13:49:31.814Z,100927.89
2019-03-28T13:52:06.009Z,100934.45
2019-03-28T13:54:41.324Z,100937.65
2019-03-28T13:57:15.121Z,100932.52
2019-03-28T13:59:49.048Z,100932.41
2019-03-28T14:02:22.505Z,100925.00
2019-03-28T14:04:56.539Z,100908.26
2019-03-28T14:07:30.264Z,100917.26
2019-03-28T14:10:04.530Z,100912.55
2019-03-28T14:12:38.571Z,100909.08
2019-03-28T14:15:11.944Z,100915.45
2019-03-28T14:17:47.182Z,100916.30
2019-03-28T14:20:22.316Z,100922.97
2019-03-28T14:22:56.519Z,100930.50
2019-03-28T14:25:30.413Z,100927.63
2019-03-28T14:28:04.026Z,100935.07
2019-03-28T14:30:39.633Z,100935.67
2019-03-28T14:33:15.893Z,100935.33
2019-03-28T14:35:51.404Z,100940.45
2019-03-28T14:38:24.691Z,100944.09
2019-03-28T14:40:58.454Z,100950.62
2019-03-28T14:43:32.996Z,100956.00
2019-03-28T14:46:07.090Z,100957.12
2019-03-28T14:48:40.848Z,100964.45
2019-03-28T14:51:16.598Z,100962.67
2019-03-28T14:53:50.635Z,100960.45
2019-03-28T14:56:26.152Z,100955.59
2019-03-28T14:59:02.419Z,100956.83
2019-03-28T15:01:36.697Z,100958.66
2019-03-28T15:04:10.670Z,100956.91
2019-03-28T15:06:44.507Z,100959.06
2019-03-28T15:09:19.464Z,100963.28
2019-03-28T15:11:52.924Z,100958.05
2019-03-28T15:14:26.811Z,100965.63
2019-03-28T15:17:01.368Z,100965.45
2019-03-28T15:19:36.393Z,100973.28
2019-03-28T15:22:10.729Z,100976.64
2019-03-28T15:24:45.998Z,100978.76
2019-03-28T15:27:19.358Z,100982.44
2019-03-28T15:29:52.644Z,100984.62
2019-03-28T15:32:26.486Z,100990.39
2019-03-28T15:35:01.923Z,100989.48
2019-03-28T15:37:36.449Z,100990.64
2019-03-28T15:40:11.859Z,101000.08
2019-03-28T15:42:46.591Z,100997.21
2019-03-28T15:45:22.013Z,100996.87
2019-03-28T15:47:56.918Z,100994.89
2019-03-28T15:50:32.508Z,101005.48
2019-03-28T15:53:07.526Z,100997.86
2019-03-28T15:55:42.787Z,100995.72
2019-03-28T15:58:22.970Z,100995.89
2019-03-28T16:00:51.793Z,100999.30
2019-03-28T16:03:26.622Z,101000.70
2019-03-28T16:06:00.422Z,101004.92
2019-03-28T16:08:35.905Z,101013.00
2019-03-28T16:11:10.003Z,101018.70
2019-03-28T16:13:45.116Z,101018.58
2019-03-28T16:16:19.032Z,101018.30
2019-03-28T16:18:53.196Z,101017.66
2019-03-28T16:21:26.870Z,101018.19
2019-03-28T16:24:01.214Z,101017.52
2019-03-28T16:26:35.443Z,101015.60
2019-03-28T16:29:09.703Z,101019.84
2019-03-28T16:31:43.249Z,101022.97
2019-03-28T16:34:17.096Z,101021.77
2019-03-28T16:36:52.063Z,101023.04
2019-03-28T16:39:26.157Z,101029.59
2019-03-28T16:41:59.674Z,101033.03
2019-03-28T16:44:34.505Z,101036.03
2019-03-28T16:47:10.137Z,101034.59
2019-03-28T16:49:44.704Z,101037.09
2019-03-28T16:52:18.818Z,101038.67
2019-03-28T16:54:53.100Z,101039.07
2019-03-28T16:57:27.938Z,101039.88
2019-03-28T17:00:03.149Z,101043.37
2019-03-28T17:02:37.706Z,101038.70
2019-03-28T17:05:11.627Z,101041.02
2019-03-28T17:14:06.285Z,101056.02
2019-03-28T17:16:40.557Z,101055.86
2019-03-28T17:19:15.984Z,101056.41
2019-03-28T17:21:50.936Z,101054.33
2019-03-28T17:24:26.064Z,101056.02
2019-03-28T17:27:00.525Z,101066.70
2019-03-28T17:29:34.790Z,101073.81
2019-03-28T17:32:10.949Z,101072.95
2019-03-28T17:34:46.127Z,101074.83
2019-03-28T17:37:20.625Z,101080.63
2019-03-28T17:39:55.059Z,101087.42
2019-03-28T17:42:29.622Z,101092.34
2019-03-28T17:45:05.478Z,101097.29
2019-03-28T17:47:40.020Z,101099.55
2019-03-28T17:50:15.100Z,101103.42
2019-03-28T17:52:49.351Z,101101.92
2019-03-28T17:55:23.440Z,101100.33
2019-03-28T17:57:57.776Z,101110.17
2019-03-28T18:00:33.176Z,101114.37
2019-03-28T18:03:09.468Z,101110.18
2019-03-28T18:05:57.128Z,101108.23
2019-03-28T18:08:20.784Z,101112.48
2019-03-28T18:10:55.838Z,101110.73
2019-03-28T18:13:31.240Z,101117.78
2019-03-28T18:16:07.046Z,101124.86
2019-03-28T18:18:42.483Z,101127.31
2019-03-28T18:21:16.147Z,101130.25
2019-03-28T18:23:49.784Z,101130.52
2019-03-28T18:26:25.125Z,101139.89
2019-03-28T18:28:59.874Z,101139.80
2019-03-28T18:31:33.470Z,101140.74
2019-03-28T18:34:08.586Z,101141.41
2019-03-28T18:36:42.432Z,101141.47
2019-03-28T18:39:18.094Z,101137.99
2019-03-28T18:41:52.390Z,101139.58
2019-03-28T18:44:27.005Z,101138.01
2019-03-28T18:47:00.733Z,101136.54
2019-03-28T18:49:34.309Z,101136.52
2019-03-28T18:52:08.406Z,101147.16
2019-03-28T18:54:42.659Z,101150.91
2019-03-28T18:57:19.538Z,101151.66
2019-03-28T18:59:52.871Z,101150.31
2019-03-28T19:02:28.322Z,101149.27
2019-03-28T19:05:02.887Z,101151.55
2019-03-28T19:07:37.174Z,101145.95
2019-03-28T19:10:11.852Z,101147.79
2019-03-28T19:12:45.443Z,101149.77
2019-03-28T19:15:18.501Z,101152.86
2019-03-28T19:17:52.901Z,101148.73
2019-03-28T19:20:26.462Z,101160.61
2019-03-28T19:23:00.659Z,101162.38
2019-03-28T19:25:35.042Z,101159.56
2019-03-28T19:28:09.469Z,101160.84
2019-03-28T19:30:44.102Z,101163.86
2019-03-28T19:33:17.918Z,101162.43
2019-03-28T19:35:52.152Z,101164.03
2019-03-28T19:38:26.759Z,101159.28
2019-03-28T19:41:00.141Z,101162.73
2019-03-28T19:43:37.359Z,101167.81
2019-03-28T19:46:11.046Z,101166.63
2019-03-28T19:48:45.479Z,101170.77
2019-03-28T19:51:20.020Z,101175.22
2019-03-28T19:53:53.122Z,101178.44
2019-03-28T19:56:26.402Z,101180.66
2019-03-28T19:59:01.020Z,101180.52
2019-03-28T20:01:35.736Z,101185.66
2019-03-28T20:04:09.810Z,101187.69
2019-03-28T20:06:43.440Z,101183.02
2019-03-28T20:09:18.170Z,101184.77
2019-03-28T20:11:52.906Z,101181.50
2019-03-28T20:14:31.570Z,101175.91
2019-03-28T20:17:07.157Z,101181.61
2019-03-28T20:19:41.213Z,101178.50
2019-03-28T20:22:15.031Z,101181.66
2019-03-28T20:24:49.365Z,101181.89
2019-03-28T20:27:23.788Z,101179.96
2019-03-28T20:29:57.575Z,101184.02
2019-03-28T20:32:33.576Z,101186.13
2019-03-28T20:35:10.339Z,101182.45
2019-03-28T20:37:43.228Z,101192.18
2019-03-28T20:40:17.809Z,101190.50
2019-03-28T20:42:53.704Z,101193.41
2019-03-28T20:45:29.136Z,101200.61
2019-03-28T20:48:03.371Z,101212.13
2019-03-28T20:50:37.744Z,101217.88
2019-03-28T20:53:12.513Z,101222.25
2019-03-28T20:55:46.664Z,101221.05
2019-03-28T20:58:19.747Z,101226.63
2019-03-28T21:00:53.967Z,101229.41
2019-03-28T21:03:28.866Z,101232.54
2019-03-28T21:06:14.586Z,101240.08
2019-03-28T21:08:42.156Z,101242.48
2019-03-28T21:11:15.169Z,101250.34
2019-03-28T21:13:49.027Z,101243.56
2019-03-28T21:16:22.969Z,101248.98
2019-03-28T21:18:58.557Z,101245.83
2019-03-28T21:21:32.176Z,101247.28
2019-03-28T21:24:06.316Z,101251.56
2019-03-28T21:26:41.050Z,101244.58
2019-03-28T21:29:16.706Z,101251.22
2019-03-28T21:31:51.985Z,101244.50
2019-03-28T21:34:26.149Z,101247.52
2019-03-28T21:37:01.198Z,101246.42
2019-03-28T21:39:35.604Z,101247.27
2019-03-28T21:42:11.217Z,101248.80
2019-03-28T21:44:47.127Z,101246.06
2019-03-28T21:47:22.723Z,101244.75
2019-03-28T21:49:57.655Z,101248.95
2019-03-28T21:52:32.908Z,101249.38
2019-03-28T21:55:07.213Z,101248.77
2019-03-28T21:57:42.613Z,101251.69
2019-03-28T22:00:18.095Z,101252.07
2019-03-28T22:02:52.989Z,101255.98
2019-03-28T22:05:29.103Z,101250.16
2019-03-28T22:08:04.173Z,101247.61
2019-03-28T22:10:38.598Z,101244.52
2019-03-28T22:13:14.573Z,101248.77
2019-03-28T22:15:49.126Z,101249.90
2019-03-28T22:18:23.691Z,101253.44
2019-03-28T22:20:58.106Z,101257.48
2019-03-28T22:23:34.244Z,101260.64
2019-03-28T22:26:09.712Z,101254.63
2019-03-28T22:28:44.373Z,101255.27
2019-03-28T22:31:20.469Z,101254.78
2019-03-28T22:33:55.352Z,101258.16
2019-03-28T22:36:30.289Z,101257.79
2019-03-28T22:39:05.618Z,101257.91
2019-03-28T22:41:39.953Z,101257.98
2019-03-28T22:44:16.073Z,101259.91
2019-03-28T22:46:50.522Z,101261.88
2019-03-28T22:49:25.450Z,101257.78
2019-03-28T22:52:00.004Z,101264.10
2019-03-28T22:54:34.932Z,101263.61
2019-03-28T22:57:09.390Z,101267.58
2019-03-28T22:59:43.742Z,101262.23
2019-03-28T23:02:18.863Z,101256.59
2019-03-28T23:04:53.403Z,101253.59
2019-03-28T23:07:27.447Z,101261.42
2019-03-28T23:10:01.435Z,101255.00
2019-03-28T23:12:36.472Z,101249.63
2019-03-28T23:15:13.449Z,101251.61
2019-03-28T23:17:47.725Z,101255.56
2019-03-28T23:20:22.105Z,101261.13
2019-03-28T23:22:57.775Z,101259.79
2019-03-28T23:25:32.177Z,101261.80
2019-03-28T23:28:07.456Z,101265.34
2019-03-28T23:30:42.579Z,101265.65
2019-03-28T23:33:18.994Z,101264.88
2019-03-28T23:35:53.412Z,101263.05
2019-03-28T23:38:27.844Z,101263.75
2019-03-28T23:41:03.441Z,101263.13
2019-03-28T23:43:37.519Z,101261.80
2019-03-28T23:46:12.521Z,101271.09
2019-03-28T23:48:47.995Z,101264.95
2019-03-28T23:51:24.806Z,101256.02
2019-03-28T23:54:00.776Z,101256.55
2019-03-28T23:56:36.849Z,101260.97
2019-03-28T23:59:13.149Z,101253.70
